Terminal Aerodrome Forecast
Issued by NWS Columbia, SC

Home | Current Version | Previous Version | Text Only | Print | Product List | Glossary On
Versions: 1 2 3 4 5 6 7 8 9 10 11 12 13 14 15 16 17 18 19 20 21 22 23 24 25 26 27 28 29 30 31 32 33 34 35 36 37 38 39 40 41 42 43 44 45 46 47
000
FTAK31 PAJN 290123 AAA
TAFAGS
TAF AMD
PAGS 290123Z 2901/2924 25012KT P6SM VCSH SCT025 OVC045
     FM290500 VRB03KT P6SM OVC050
     FM291000 VRB03KT 3SM BR SCT001 SCT050
     FM291700 34005KT P6SM SCT070
     FM292000 30007KT P6SM FEW070
      AMD LTD TO CLD VIS AND WIND=

USA.gov is the U.S. government's official web portal to all federal, state and local government web resources and services.